sensor_id;sensor_type;location;lat;lon;timestamp;pressure;altitude;pressure_sealevel;temperature;humidity
64616;BME280;51027;42.162;24.754;2022-12-07T00:02:05;99944.72;;;6.62;100.00
64616;BME280;51027;42.162;24.754;2022-12-07T00:04:31;99943.03;;;6.59;100.00
64616;BME280;51027;42.162;24.754;2022-12-07T00:07:00;99949.19;;;6.57;100.00
64616;BME280;51027;42.162;24.754;2022-12-07T00:09:27;99930.25;;;6.43;100.00
64616;BME280;51027;42.162;24.754;2022-12-07T00:11:53;99951.84;;;6.55;100.00
64616;BME280;51027;42.162;24.754;2022-12-07T00:14:21;99950.09;;;6.56;100.00
64616;BME280;51027;42.162;24.754;2022-12-07T00:16:49;99946.66;;;6.52;100.00
64616;BME280;51027;42.162;24.754;2022-12-07T00:19:16;99950.81;;;6.62;100.00
64616;BME280;51027;42.162;24.754;2022-12-07T00:21:45;99937.34;;;6.38;100.00
64616;BME280;51027;42.162;24.754;2022-12-07T00:24:11;99949.28;;;6.51;100.00
64616;BME280;51027;42.162;24.754;2022-12-07T00:26:40;99939.97;;;6.38;100.00
64616;BME280;51027;42.162;24.754;2022-12-07T00:29:17;99944.31;;;6.37;100.00
64616;BME280;51027;42.162;24.754;2022-12-07T00:31:43;99943.69;;;6.24;100.00
64616;BME280;51027;42.162;24.754;2022-12-07T00:34:17;99956.75;;;6.23;100.00
64616;BME280;51027;42.162;24.754;2022-12-07T00:36:43;99951.66;;;6.17;100.00
64616;BME280;51027;42.162;24.754;2022-12-07T00:39:09;99950.59;;;6.28;100.00
64616;BME280;51027;42.162;24.754;2022-12-07T00:41:37;99948.72;;;6.35;100.00
64616;BME280;51027;42.162;24.754;2022-12-07T00:44:03;99949.53;;;6.39;100.00
64616;BME280;51027;42.162;24.754;2022-12-07T00:46:38;99921.03;;;6.22;100.00
64616;BME280;51027;42.162;24.754;2022-12-07T00:49:06;99945.19;;;6.38;100.00
64616;BME280;51027;42.162;24.754;2022-12-07T00:51:35;99942.53;;;6.39;100.00
64616;BME280;51027;42.162;24.754;2022-12-07T00:54:04;99941.75;;;6.35;100.00
64616;BME280;51027;42.162;24.754;2022-12-07T00:56:30;99884.03;;;5.97;100.00
64616;BME280;51027;42.162;24.754;2022-12-07T00:59:00;99908.31;;;6.02;100.00
64616;BME280;51027;42.162;24.754;2022-12-07T01:01:29;99949.84;;;6.20;100.00
64616;BME280;51027;42.162;24.754;2022-12-07T01:04:01;99928.97;;;6.19;100.00
64616;BME280;51027;42.162;24.754;2022-12-07T01:06:27;99935.84;;;6.23;100.00
64616;BME280;51027;42.162;24.754;2022-12-07T01:08:54;99930.63;;;6.24;100.00
64616;BME280;51027;42.162;24.754;2022-12-07T01:11:22;99912.63;;;6.06;100.00
64616;BME280;51027;42.162;24.754;2022-12-07T01:13:53;99916.97;;;6.07;100.00
64616;BME280;51027;42.162;24.754;2022-12-07T01:16:20;99908.31;;;6.03;100.00
64616;BME280;51027;42.162;24.754;2022-12-07T01:18:48;99929.03;;;6.16;100.00
64616;BME280;51027;42.162;24.754;2022-12-07T01:21:20;99926.41;;;6.16;100.00
64616;BME280;51027;42.162;24.754;2022-12-07T01:23:46;99922.94;;;6.15;100.00
64616;BME280;51027;42.162;24.754;2022-12-07T01:26:31;99923.00;;;6.11;100.00
64616;BME280;51027;42.162;24.754;2022-12-07T01:29:11;99920.53;;;6.01;100.00
64616;BME280;51027;42.162;24.754;2022-12-07T01:31:43;99921.34;;;6.06;100.00
64616;BME280;51027;42.162;24.754;2022-12-07T01:34:08;99895.34;;;5.97;100.00
64616;BME280;51027;42.162;24.754;2022-12-07T01:36:35;99915.97;;;6.14;100.00
64616;BME280;51027;42.162;24.754;2022-12-07T01:39:05;99915.84;;;6.20;100.00
64616;BME280;51027;42.162;24.754;2022-12-07T01:41:34;99906.25;;;6.21;100.00
64616;BME280;51027;42.162;24.754;2022-12-07T01:44:18;99902.03;;;6.12;100.00
64616;BME280;51027;42.162;24.754;2022-12-07T01:49:33;99895.94;;;6.12;100.00
64616;BME280;51027;42.162;24.754;2022-12-07T01:52:29;99894.25;;;6.09;100.00
64616;BME280;51027;42.162;24.754;2022-12-07T01:55:00;99895.06;;;6.13;100.00
64616;BME280;51027;42.162;24.754;2022-12-07T01:57:27;99900.28;;;6.14;100.00
64616;BME280;51027;42.162;24.754;2022-12-07T01:59:59;99905.63;;;6.08;100.00
64616;BME280;51027;42.162;24.754;2022-12-07T02:02:33;99902.88;;;6.16;100.00
64616;BME280;51027;42.162;24.754;2022-12-07T02:05:04;99897.63;;;6.16;100.00
64616;BME280;51027;42.162;24.754;2022-12-07T02:07:31;99896.75;;;6.17;100.00
64616;BME280;51027;42.162;24.754;2022-12-07T02:10:18;99898.50;;;6.16;100.00
64616;BME280;51027;42.162;24.754;2022-12-07T02:12:48;99888.94;;;6.15;100.00
64616;BME280;51027;42.162;24.754;2022-12-07T02:15:16;99880.47;;;6.01;100.00
64616;BME280;51027;42.162;24.754;2022-12-07T02:18:07;99894.19;;;6.14;100.00
64616;BME280;51027;42.162;24.754;2022-12-07T02:23:31;99882.16;;;6.05;100.00
64616;BME280;51027;42.162;24.754;2022-12-07T02:31:25;99872.38;;;6.15;100.00
64616;BME280;51027;42.162;24.754;2022-12-07T02:34:08;99835.22;;;5.97;100.00
64616;BME280;51027;42.162;24.754;2022-12-07T02:36:40;99849.91;;;6.04;100.00
64616;BME280;51027;42.162;24.754;2022-12-07T02:39:15;99880.25;;;6.13;100.00
64616;BME280;51027;42.162;24.754;2022-12-07T02:41:47;99874.19;;;6.10;100.00
64616;BME280;51027;42.162;24.754;2022-12-07T02:44:19;99880.25;;;6.13;100.00
64616;BME280;51027;42.162;24.754;2022-12-07T02:46:55;99838.81;;;5.89;100.00
64616;BME280;51027;42.162;24.754;2022-12-07T02:49:24;99871.59;;;6.10;100.00
64616;BME280;51027;42.162;24.754;2022-12-07T02:51:52;99869.03;;;6.06;100.00
64616;BME280;51027;42.162;24.754;2022-12-07T02:54:19;99868.19;;;6.06;100.00
64616;BME280;51027;42.162;24.754;2022-12-07T03:07:51;99849.53;;;6.24;100.00
64616;BME280;51027;42.162;24.754;2022-12-07T03:16:14;99863.47;;;6.25;100.00
64616;BME280;51027;42.162;24.754;2022-12-07T03:18:51;99863.34;;;6.31;100.00
64616;BME280;51027;42.162;24.754;2022-12-07T03:21:25;99866.13;;;6.23;100.00
64616;BME280;51027;42.162;24.754;2022-12-07T03:23:54;99862.75;;;6.17;100.00
64616;BME280;51027;42.162;24.754;2022-12-07T03:26:25;99862.81;;;6.14;100.00
64616;BME280;51027;42.162;24.754;2022-12-07T03:28:58;99868.88;;;6.16;100.00
64616;BME280;51027;42.162;24.754;2022-12-07T03:31:30;99865.38;;;6.17;100.00
64616;BME280;51027;42.162;24.754;2022-12-07T03:34:05;99858.41;;;6.16;100.00
64616;BME280;51027;42.162;24.754;2022-12-07T03:36:40;99841.22;;;6.02;100.00
64616;BME280;51027;42.162;24.754;2022-12-07T03:39:24;99855.06;;;6.07;100.00
64616;BME280;51027;42.162;24.754;2022-12-07T03:41:51;99868.00;;;6.15;100.00
64616;BME280;51027;42.162;24.754;2022-12-07T03:44:17;99864.41;;;6.21;100.00
64616;BME280;51027;42.162;24.754;2022-12-07T03:49:53;99863.75;;;6.10;100.00
64616;BME280;51027;42.162;24.754;2022-12-07T03:55:16;99865.38;;;6.17;100.00
64616;BME280;51027;42.162;24.754;2022-12-07T03:57:44;99853.31;;;6.08;100.00
64616;BME280;51027;42.162;24.754;2022-12-07T04:00:12;99831.81;;;5.92;100.00
64616;BME280;51027;42.162;24.754;2022-12-07T04:02:38;99855.06;;;6.07;100.00
64616;BME280;51027;42.162;24.754;2022-12-07T04:05:04;99829.25;;;5.88;100.00
64616;BME280;51027;42.162;24.754;2022-12-07T04:07:29;99844.75;;;6.00;100.00
64616;BME280;51027;42.162;24.754;2022-12-07T04:09:55;99849.25;;;5.93;100.00
64616;BME280;51027;42.162;24.754;2022-12-07T04:12:21;99849.16;;;5.98;100.00
64616;BME280;51027;42.162;24.754;2022-12-07T04:14:47;99847.47;;;5.95;100.00
64616;BME280;51027;42.162;24.754;2022-12-07T04:17:12;99844.88;;;5.94;100.00
64616;BME280;51027;42.162;24.754;2022-12-07T04:19:37;99845.78;;;5.93;100.00
64616;BME280;51027;42.162;24.754;2022-12-07T04:22:04;99823.47;;;5.70;100.00
64616;BME280;51027;42.162;24.754;2022-12-07T04:24:30;99819.28;;;5.60;100.00
64616;BME280;51027;42.162;24.754;2022-12-07T04:26:55;99786.50;;;5.42;100.00
64616;BME280;51027;42.162;24.754;2022-12-07T04:29:22;99819.91;;;5.74;100.00
64616;BME280;51027;42.162;24.754;2022-12-07T04:31:47;99841.34;;;5.96;100.00
64616;BME280;51027;42.162;24.754;2022-12-07T04:34:14;99844.75;;;6.00;100.00
64616;BME280;51027;42.162;24.754;2022-12-07T04:36:40;99841.41;;;5.93;100.00
64616;BME280;51027;42.162;24.754;2022-12-07T04:39:07;99836.22;;;5.89;100.00
64616;BME280;51027;42.162;24.754;2022-12-07T04:41:33;99836.38;;;5.79;100.00
64616;BME280;51027;42.162;24.754;2022-12-07T04:44:01;99818.47;;;5.57;100.00
64616;BME280;51027;42.162;24.754;2022-12-07T04:46:28;99821.00;;;5.61;100.00
64616;BME280;51027;42.162;24.754;2022-12-07T04:48:54;99838.47;;;5.59;100.00
64616;BME280;51027;42.162;24.754;2022-12-07T04:51:23;99817.91;;;5.38;100.00
64616;BME280;51027;42.162;24.754;2022-12-07T04:53:49;99839.59;;;5.44;100.00
64616;BME280;51027;42.162;24.754;2022-12-07T04:56:15;99833.63;;;5.36;100.00
64616;BME280;51027;42.162;24.754;2022-12-07T04:58:42;99818.13;;;5.26;100.00
64616;BME280;51027;42.162;24.754;2022-12-07T05:01:07;99842.38;;;5.31;100.00
64616;BME280;51027;42.162;24.754;2022-12-07T05:03:33;99844.22;;;5.26;100.00
64616;BME280;51027;42.162;24.754;2022-12-07T05:05:58;99853.84;;;5.24;100.00
64616;BME280;51027;42.162;24.754;2022-12-07T05:08:24;99848.59;;;5.25;100.00
64616;BME280;51027;42.162;24.754;2022-12-07T05:10:49;99852.09;;;5.24;100.00
64616;BME280;51027;42.162;24.754;2022-12-07T05:13:15;99851.41;;;5.10;100.00
64616;BME280;51027;42.162;24.754;2022-12-07T05:15:41;99851.63;;;4.96;100.00
64616;BME280;51027;42.162;24.754;2022-12-07T05:18:09;99835.22;;;4.86;100.00
64616;BME280;51027;42.162;24.754;2022-12-07T05:20:34;99844.66;;;4.97;100.00
64616;BME280;51027;42.162;24.754;2022-12-07T05:23:00;99854.19;;;4.98;100.00
64616;BME280;51027;42.162;24.754;2022-12-07T05:25:25;99840.34;;;4.94;100.00
64616;BME280;51027;42.162;24.754;2022-12-07T05:27:50;99842.03;;;4.97;100.00
64616;BME280;51027;42.162;24.754;2022-12-07T05:30:16;99842.03;;;4.97;100.00
64616;BME280;51027;42.162;24.754;2022-12-07T05:32:41;99843.72;;;4.99;100.00
64616;BME280;51027;42.162;24.754;2022-12-07T05:35:07;99831.69;;;4.89;100.00
64616;BME280;51027;42.162;24.754;2022-12-07T05:37:33;99836.97;;;4.86;100.00
64616;BME280;51027;42.162;24.754;2022-12-07T05:39:58;99861.88;;;5.08;100.00
64616;BME280;51027;42.162;24.754;2022-12-07T05:42:23;99836.75;;;5.00;100.00
64616;BME280;51027;42.162;24.754;2022-12-07T05:44:49;99852.16;;;5.18;100.00
64616;BME280;51027;42.162;24.754;2022-12-07T05:47:15;99851.25;;;5.20;100.00
64616;BME280;51027;42.162;24.754;2022-12-07T05:49:40;99849.56;;;5.18;100.00
64616;BME280;51027;42.162;24.754;2022-12-07T05:52:06;99835.81;;;5.05;100.00
64616;BME280;51027;42.162;24.754;2022-12-07T05:54:32;99828.06;;;5.01;100.00
64616;BME280;51027;42.162;24.754;2022-12-07T05:56:58;99861.63;;;5.27;100.00
64616;BME280;51027;42.162;24.754;2022-12-07T05:59:23;99854.84;;;5.15;100.00
64616;BME280;51027;42.162;24.754;2022-12-07T06:04:19;99860.75;;;5.26;100.00
64616;BME280;51027;42.162;24.754;2022-12-07T06:06:46;99849.53;;;5.19;100.00
64616;BME280;51027;42.162;24.754;2022-12-07T06:09:11;99840.47;;;5.43;100.00
64616;BME280;51027;42.162;24.754;2022-12-07T06:11:38;99861.13;;;5.57;100.00
64616;BME280;51027;42.162;24.754;2022-12-07T06:14:22;99854.28;;;5.50;100.00
64616;BME280;51027;42.162;24.754;2022-12-07T06:16:48;99871.59;;;5.57;100.00
64616;BME280;51027;42.162;24.754;2022-12-07T06:19:14;99866.28;;;5.62;100.00
64616;BME280;51027;42.162;24.754;2022-12-07T06:21:39;99860.13;;;5.66;100.00
64616;BME280;51027;42.162;24.754;2022-12-07T06:24:05;99859.81;;;5.84;100.00
64616;BME280;51027;42.162;24.754;2022-12-07T06:26:31;99856.25;;;5.88;100.00
64616;BME280;51027;42.162;24.754;2022-12-07T06:28:57;99872.00;;;5.85;100.00
64616;BME280;51027;42.162;24.754;2022-12-07T06:31:22;99870.06;;;5.98;100.00
64616;BME280;51027;42.162;24.754;2022-12-07T06:33:47;99861.25;;;6.02;100.00
64616;BME280;51027;42.162;24.754;2022-12-07T06:36:13;99869.84;;;6.10;100.00
64616;BME280;51027;42.162;24.754;2022-12-07T06:38:39;99874.81;;;6.25;100.00
64616;BME280;51027;42.162;24.754;2022-12-07T06:41:04;99868.13;;;6.09;100.00
64616;BME280;51027;42.162;24.754;2022-12-07T06:43:29;99877.34;;;6.28;100.00
64616;BME280;51027;42.162;24.754;2022-12-07T06:45:55;99879.75;;;6.39;100.00
64616;BME280;51027;42.162;24.754;2022-12-07T06:48:20;99870.91;;;6.46;100.00
64616;BME280;51027;42.162;24.754;2022-12-07T06:50:48;99873.31;;;6.57;100.00
64616;BME280;51027;42.162;24.754;2022-12-07T06:53:13;99881.81;;;6.68;100.00
64616;BME280;51027;42.162;24.754;2022-12-07T06:55:39;99873.91;;;6.70;100.00
64616;BME280;51027;42.162;24.754;2022-12-07T06:58:04;99879.84;;;6.78;100.00
64616;BME280;51027;42.162;24.754;2022-12-07T07:00:30;99858.81;;;6.82;100.00
64616;BME280;51027;42.162;24.754;2022-12-07T07:02:55;99866.75;;;6.79;100.00
64616;BME280;51027;42.162;24.754;2022-12-07T07:05:21;99876.84;;;6.96;100.00
64616;BME280;51027;42.162;24.754;2022-12-07T07:07:48;99842.25;;;6.82;100.00
64616;BME280;51027;42.162;24.754;2022-12-07T07:10:13;99862.09;;;6.50;100.00
64616;BME280;51027;42.162;24.754;2022-12-07T07:12:39;99855.13;;;6.91;100.00
64616;BME280;51027;42.162;24.754;2022-12-07T07:15:04;99856.34;;;7.15;100.00
64616;BME280;51027;42.162;24.754;2022-12-07T07:17:30;99863.78;;;6.94;100.00
64616;BME280;51027;42.162;24.754;2022-12-07T07:19:55;99873.84;;;6.73;100.00
64616;BME280;51027;42.162;24.754;2022-12-07T07:22:21;99873.19;;;6.61;100.00
64616;BME280;51027;42.162;24.754;2022-12-07T07:24:46;99875.75;;;6.66;100.00
64616;BME280;51027;42.162;24.754;2022-12-07T07:27:12;99873.41;;;7.33;100.00
64616;BME280;51027;42.162;24.754;2022-12-07T07:29:37;99863.66;;;7.39;100.00
64616;BME280;51027;42.162;24.754;2022-12-07T07:32:02;99858.50;;;7.35;100.00
64616;BME280;51027;42.162;24.754;2022-12-07T07:34:28;99862.88;;;6.97;100.00
64616;BME280;51027;42.162;24.754;2022-12-07T07:36:53;99835.34;;;7.18;100.00
64616;BME280;51027;42.162;24.754;2022-12-07T07:39:18;99870.06;;;7.63;100.00
64616;BME280;51027;42.162;24.754;2022-12-07T07:41:44;99878.94;;;7.58;100.00
64616;BME280;51027;42.162;24.754;2022-12-07T07:44:09;99876.34;;;7.19;100.00
64616;BME280;51027;42.162;24.754;2022-12-07T07:46:35;99861.97;;;7.37;100.00
64616;BME280;51027;42.162;24.754;2022-12-07T07:49:00;99887.59;;;7.61;100.00
64616;BME280;51027;42.162;24.754;2022-12-07T07:51:26;99887.56;;;7.97;100.00
64616;BME280;51027;42.162;24.754;2022-12-07T07:53:51;99886.72;;;8.92;94.94
64616;BME280;51027;42.162;24.754;2022-12-07T07:56:17;99877.53;;;8.47;95.93
64616;BME280;51027;42.162;24.754;2022-12-07T07:58:42;99881.16;;;8.74;94.74
64616;BME280;51027;42.162;24.754;2022-12-07T08:01:10;99884.22;;;7.56;99.21
64616;BME280;51027;42.162;24.754;2022-12-07T08:03:36;99891.03;;;7.99;98.49
64616;BME280;51027;42.162;24.754;2022-12-07T08:06:02;99887.94;;;8.16;97.84
64616;BME280;51027;42.162;24.754;2022-12-07T08:08:28;99847.94;;;8.42;95.63
64616;BME280;51027;42.162;24.754;2022-12-07T08:10:53;99879.81;;;9.18;92.69
64616;BME280;51027;42.162;24.754;2022-12-07T08:13:19;99871.94;;;8.90;93.17
64616;BME280;51027;42.162;24.754;2022-12-07T08:15:46;99878.22;;;8.84;93.47
64616;BME280;51027;42.162;24.754;2022-12-07T08:18:16;99862.81;;;9.30;91.62
64616;BME280;51027;42.162;24.754;2022-12-07T08:20:44;99834.63;;;9.88;87.12
64616;BME280;51027;42.162;24.754;2022-12-07T08:23:10;99882.53;;;10.72;84.79
64616;BME280;51027;42.162;24.754;2022-12-07T08:25:36;99874.19;;;12.17;77.17
64616;BME280;51027;42.162;24.754;2022-12-07T08:28:02;99881.41;;;12.12;77.43
64616;BME280;51027;42.162;24.754;2022-12-07T08:30:29;99860.13;;;12.95;72.69
64616;BME280;51027;42.162;24.754;2022-12-07T08:32:55;99875.19;;;15.68;61.61
64616;BME280;51027;42.162;24.754;2022-12-07T08:35:21;99872.22;;;19.17;49.77
64616;BME280;51027;42.162;24.754;2022-12-07T08:37:47;99873.69;;;20.40;46.13
64616;BME280;51027;42.162;24.754;2022-12-07T08:40:13;99873.44;;;19.37;46.69
64616;BME280;51027;42.162;24.754;2022-12-07T08:42:44;99856.88;;;18.95;47.17
64616;BME280;51027;42.162;24.754;2022-12-07T08:45:15;99861.66;;;18.39;48.31
64616;BME280;51027;42.162;24.754;2022-12-07T08:47:52;99870.25;;;18.04;49.77
64616;BME280;51027;42.162;24.754;2022-12-07T08:50:19;99853.47;;;20.14;45.20
64616;BME280;51027;42.162;24.754;2022-12-07T08:52:48;99837.09;;;19.95;44.14
64616;BME280;51027;42.162;24.754;2022-12-07T08:55:16;99846.88;;;21.09;42.34
64616;BME280;51027;42.162;24.754;2022-12-07T08:57:42;99837.84;;;19.12;45.06
64616;BME280;51027;42.162;24.754;2022-12-07T09:00:08;99848.28;;;15.27;55.96
64616;BME280;51027;42.162;24.754;2022-12-07T09:02:34;99850.72;;;14.50;60.88
64616;BME280;51027;42.162;24.754;2022-12-07T09:05:00;99835.72;;;19.05;48.63
64616;BME280;51027;42.162;24.754;2022-12-07T09:07:26;99846.28;;;17.50;50.50
64616;BME280;51027;42.162;24.754;2022-12-07T09:09:51;99845.22;;;15.35;57.20
64616;BME280;51027;42.162;24.754;2022-12-07T09:12:16;99834.22;;;15.41;56.68
64616;BME280;51027;42.162;24.754;2022-12-07T09:14:42;99814.63;;;17.19;52.50
64616;BME280;51027;42.162;24.754;2022-12-07T09:17:08;99818.38;;;16.74;53.14
64616;BME280;51027;42.162;24.754;2022-12-07T09:19:35;99809.25;;;13.81;62.06
64616;BME280;51027;42.162;24.754;2022-12-07T09:22:00;99819.66;;;12.55;67.59
64616;BME280;51027;42.162;24.754;2022-12-07T09:24:26;99802.34;;;12.29;69.08
64616;BME280;51027;42.162;24.754;2022-12-07T09:26:51;99788.69;;;12.59;68.37
64616;BME280;51027;42.162;24.754;2022-12-07T09:29:17;99801.75;;;12.81;68.26
64616;BME280;51027;42.162;24.754;2022-12-07T09:31:42;99794.75;;;13.53;65.90
64616;BME280;51027;42.162;24.754;2022-12-07T09:34:07;99801.41;;;14.47;62.40
64616;BME280;51027;42.162;24.754;2022-12-07T09:36:33;99799.47;;;13.99;62.99
64616;BME280;51027;42.162;24.754;2022-12-07T09:38:59;99788.66;;;13.69;65.04
64616;BME280;51027;42.162;24.754;2022-12-07T09:41:25;99785.13;;;13.15;66.06
64616;BME280;51027;42.162;24.754;2022-12-07T09:43:53;99781.34;;;13.39;64.64
64616;BME280;51027;42.162;24.754;2022-12-07T09:46:23;99776.91;;;15.07;59.69
64616;BME280;51027;42.162;24.754;2022-12-07T09:48:49;99764.38;;;13.95;62.14
64616;BME280;51027;42.162;24.754;2022-12-07T09:51:23;99749.13;;;14.82;58.90
64616;BME280;51027;42.162;24.754;2022-12-07T09:53:50;99766.91;;;14.64;59.89
64616;BME280;51027;42.162;24.754;2022-12-07T09:56:17;99760.56;;;14.51;60.81
64616;BME280;51027;42.162;24.754;2022-12-07T09:58:44;99764.47;;;15.39;59.96
64616;BME280;51027;42.162;24.754;2022-12-07T10:01:16;99766.59;;;16.51;55.32
64616;BME280;51027;42.162;24.754;2022-12-07T10:03:50;99764.28;;;18.21;50.87
64616;BME280;51027;42.162;24.754;2022-12-07T10:06:16;99768.03;;;15.83;55.73
64616;BME280;51027;42.162;24.754;2022-12-07T10:08:41;99767.84;;;14.30;61.64
64616;BME280;51027;42.162;24.754;2022-12-07T10:11:09;99760.97;;;17.25;53.87
64616;BME280;51027;42.162;24.754;2022-12-07T10:13:43;99762.22;;;19.36;45.86
64616;BME280;51027;42.162;24.754;2022-12-07T10:16:35;99752.69;;;19.68;44.85
64616;BME280;51027;42.162;24.754;2022-12-07T10:22:09;99732.84;;;15.80;54.40
64616;BME280;51027;42.162;24.754;2022-12-07T10:24:35;99742.97;;;14.82;57.82
64616;BME280;51027;42.162;24.754;2022-12-07T10:27:02;99708.41;;;14.19;59.99
64616;BME280;51027;42.162;24.754;2022-12-07T10:29:31;99726.94;;;14.67;58.53
64616;BME280;51027;42.162;24.754;2022-12-07T10:34:39;99724.22;;;13.35;63.29
64616;BME280;51027;42.162;24.754;2022-12-07T10:39:45;99710.06;;;13.53;63.19
64616;BME280;51027;42.162;24.754;2022-12-07T10:44:50;99730.94;;;13.60;63.73
64616;BME280;51027;42.162;24.754;2022-12-07T11:01:31;99702.00;;;17.83;50.61
64616;BME280;51027;42.162;24.754;2022-12-07T11:07:14;99709.69;;;23.71;37.61
64616;BME280;51027;42.162;24.754;2022-12-07T11:15:28;99683.00;;;14.48;58.46
64616;BME280;51027;42.162;24.754;2022-12-07T11:18:09;99706.94;;;13.45;63.20
64616;BME280;51027;42.162;24.754;2022-12-07T11:20:47;99696.22;;;12.95;64.67
64616;BME280;51027;42.162;24.754;2022-12-07T11:26:29;99692.72;;;12.94;65.53
64616;BME280;51027;42.162;24.754;2022-12-07T11:31:49;99688.75;;;13.39;64.58
64616;BME280;51027;42.162;24.754;2022-12-07T11:34:39;99681.13;;;13.33;64.90
64616;BME280;51027;42.162;24.754;2022-12-07T11:37:10;99680.56;;;13.26;65.37
64616;BME280;51027;42.162;24.754;2022-12-07T11:39:50;99675.06;;;12.95;65.96
64616;BME280;51027;42.162;24.754;2022-12-07T11:42:37;99671.34;;;12.44;68.05
64616;BME280;51027;42.162;24.754;2022-12-07T11:45:19;99672.50;;;12.38;68.56
64616;BME280;51027;42.162;24.754;2022-12-07T11:47:58;99669.78;;;12.40;68.24
64616;BME280;51027;42.162;24.754;2022-12-07T11:50:39;99662.06;;;12.35;68.52
64616;BME280;51027;42.162;24.754;2022-12-07T11:58:35;99652.41;;;12.72;68.14
64616;BME280;51027;42.162;24.754;2022-12-07T12:06:34;99634.25;;;12.28;68.64
64616;BME280;51027;42.162;24.754;2022-12-07T12:09:11;99634.28;;;12.46;68.43
64616;BME280;51027;42.162;24.754;2022-12-07T12:20:40;99639.44;;;12.67;67.91
64616;BME280;51027;42.162;24.754;2022-12-07T12:23:41;99632.75;;;12.42;68.10
64616;BME280;51027;42.162;24.754;2022-12-07T12:26:22;99628.81;;;12.31;68.89
64616;BME280;51027;42.162;24.754;2022-12-07T12:28:57;99633.94;;;12.34;69.05
64616;BME280;51027;42.162;24.754;2022-12-07T12:51:42;99603.44;;;12.10;70.48
64616;BME280;51027;42.162;24.754;2022-12-07T12:54:18;99603.72;;;12.04;70.08
64616;BME280;51027;42.162;24.754;2022-12-07T12:57:12;99606.66;;;12.17;70.04
64616;BME280;51027;42.162;24.754;2022-12-07T12:59:59;99595.22;;;12.16;69.72
64616;BME280;51027;42.162;24.754;2022-12-07T13:15:51;99590.94;;;12.14;70.83
64616;BME280;51027;42.162;24.754;2022-12-07T13:31:39;99599.66;;;11.58;71.70
64616;BME280;51027;42.162;24.754;2022-12-07T13:36:53;99587.81;;;11.87;71.18
64616;BME280;51027;42.162;24.754;2022-12-07T13:39:20;99597.53;;;11.66;71.54
64616;BME280;51027;42.162;24.754;2022-12-07T13:41:55;99603.66;;;11.66;71.79
64616;BME280;51027;42.162;24.754;2022-12-07T13:44:23;99589.88;;;11.60;71.59
64616;BME280;51027;42.162;24.754;2022-12-07T13:49:29;99604.84;;;11.79;71.38
64616;BME280;51027;42.162;24.754;2022-12-07T13:52:13;99593.41;;;11.79;71.38
64616;BME280;51027;42.162;24.754;2022-12-07T13:54:46;99607.34;;;11.62;71.92
64616;BME280;51027;42.162;24.754;2022-12-07T13:57:12;99608.09;;;11.66;71.69
64616;BME280;51027;42.162;24.754;2022-12-07T13:59:38;99588.50;;;11.51;72.11
64616;BME280;51027;42.162;24.754;2022-12-07T14:02:18;99616.16;;;11.42;72.65
64616;BME280;51027;42.162;24.754;2022-12-07T14:04:45;99606.66;;;11.38;72.68
64616;BME280;51027;42.162;24.754;2022-12-07T14:10:00;99611.25;;;11.33;73.06
64616;BME280;51027;42.162;24.754;2022-12-07T14:12:28;99580.97;;;11.03;73.45
64616;BME280;51027;42.162;24.754;2022-12-07T14:14:55;99606.53;;;11.21;74.12
64616;BME280;51027;42.162;24.754;2022-12-07T14:17:26;99603.56;;;11.08;74.62
64616;BME280;51027;42.162;24.754;2022-12-07T14:19:53;99610.69;;;11.27;74.11
64616;BME280;51027;42.162;24.754;2022-12-07T14:25:11;99599.28;;;11.06;75.09
64616;BME280;51027;42.162;24.754;2022-12-07T14:27:48;99588.41;;;10.93;75.16
64616;BME280;51027;42.162;24.754;2022-12-07T14:30:16;99601.16;;;11.04;75.03
64616;BME280;51027;42.162;24.754;2022-12-07T14:32:43;99604.34;;;10.90;75.33
64616;BME280;51027;42.162;24.754;2022-12-07T14:35:15;99574.88;;;10.80;75.61
64616;BME280;51027;42.162;24.754;2022-12-07T14:37:44;99602.31;;;10.96;75.90
64616;BME280;51027;42.162;24.754;2022-12-07T14:40:23;99603.50;;;10.89;76.27
64616;BME280;51027;42.162;24.754;2022-12-07T14:42:55;99606.19;;;10.88;76.42
64616;BME280;51027;42.162;24.754;2022-12-07T14:45:22;99607.91;;;10.89;76.68
64616;BME280;51027;42.162;24.754;2022-12-07T14:47:48;99604.38;;;10.68;77.61
64616;BME280;51027;42.162;24.754;2022-12-07T14:50:23;99610.38;;;10.72;77.18
64616;BME280;51027;42.162;24.754;2022-12-07T14:52:56;99584.59;;;10.58;77.27
64616;BME280;51027;42.162;24.754;2022-12-07T14:55:28;99606.28;;;10.64;78.31
64616;BME280;51027;42.162;24.754;2022-12-07T14:57:55;99607.25;;;10.62;78.39
64616;BME280;51027;42.162;24.754;2022-12-07T15:00:23;99596.44;;;10.48;79.13
64616;BME280;51027;42.162;24.754;2022-12-07T15:02:49;99607.66;;;10.53;79.12
64616;BME280;51027;42.162;24.754;2022-12-07T15:05:16;99604.63;;;10.40;80.23
64616;BME280;51027;42.162;24.754;2022-12-07T15:07:42;99594.91;;;10.19;80.93
64616;BME280;51027;42.162;24.754;2022-12-07T15:10:29;99599.19;;;9.99;81.82
64616;BME280;51027;42.162;24.754;2022-12-07T15:12:57;99597.38;;;10.01;82.47
64616;BME280;51027;42.162;24.754;2022-12-07T15:15:47;99591.28;;;9.99;82.38
64616;BME280;51027;42.162;24.754;2022-12-07T15:18:12;99573.47;;;9.84;82.73
64616;BME280;51027;42.162;24.754;2022-12-07T15:20:38;99603.00;;;9.91;83.31
64616;BME280;51027;42.162;24.754;2022-12-07T15:23:04;99619.78;;;9.88;84.07
64616;BME280;51027;42.162;24.754;2022-12-07T15:25:29;99614.00;;;9.78;84.41
64616;BME280;51027;42.162;24.754;2022-12-07T15:27:54;99630.03;;;9.72;84.81
64616;BME280;51027;42.162;24.754;2022-12-07T15:30:20;99598.16;;;9.57;85.13
64616;BME280;51027;42.162;24.754;2022-12-07T15:32:49;99629.38;;;9.66;85.08
64616;BME280;51027;42.162;24.754;2022-12-07T15:35:15;99624.78;;;9.47;85.73